createdAt,value
2019-02-26T00:00:32.632Z,1017.23
2019-02-26T00:01:48.543Z,1017.26
2019-02-26T00:02:56.320Z,1017.24
2019-02-26T00:04:05.299Z,1017.26
2019-02-26T00:05:19.355Z,1017.30
2019-02-26T00:06:28.356Z,1017.29
2019-02-26T00:07:38.626Z,1017.33
2019-02-26T00:08:51.353Z,1017.31
2019-02-26T00:10:02.573Z,1017.28
2019-02-26T00:11:11.773Z,1017.30
2019-02-26T00:12:24.125Z,1017.29
2019-02-26T00:13:34.592Z,1017.30
2019-02-26T00:14:45.354Z,1017.29
2019-02-26T00:15:54.958Z,1017.29
2019-02-26T00:17:08.720Z,1017.31
2019-02-26T00:18:18.931Z,1017.36
2019-02-26T00:19:27.982Z,1017.36
2019-02-26T00:20:40.921Z,1017.34
2019-02-26T00:21:51.892Z,1017.33
2019-02-26T00:23:02.113Z,1017.35
2019-02-26T00:24:12.792Z,1017.32
2019-02-26T00:25:22.836Z,1017.29
2019-02-26T00:26:34.094Z,1017.30
2019-02-26T00:27:44.678Z,1017.29
2019-02-26T00:28:57.197Z,1017.30
2019-02-26T00:30:09.575Z,1017.26
2019-02-26T00:31:19.277Z,1017.29
2019-02-26T00:32:30.265Z,1017.21
2019-02-26T00:33:41.009Z,1017.23
2019-02-26T00:34:53.159Z,1017.23
2019-02-26T00:36:04.410Z,1017.19
2019-02-26T00:37:14.510Z,1017.19
2019-02-26T00:38:25.685Z,1017.16
2019-02-26T00:39:36.864Z,1017.19
2019-02-26T00:40:47.536Z,1017.16
2019-02-26T00:42:00.388Z,1017.19
2019-02-26T00:43:08.861Z,1017.18
2019-02-26T00:44:21.190Z,1017.19
2019-02-26T00:45:33.553Z,1017.18
2019-02-26T00:46:42.402Z,1017.16
2019-02-26T00:47:53.572Z,1017.19
2019-02-26T00:49:05.881Z,1017.14
2019-02-26T00:50:16.664Z,1017.15
2019-02-26T00:51:27.002Z,1017.16
2019-02-26T00:52:39.189Z,1017.14
2019-02-26T00:53:50.853Z,1017.17
2019-02-26T00:55:00.413Z,1017.15
2019-02-26T00:56:11.959Z,1017.17
2019-02-26T00:57:22.614Z,1017.13
2019-02-26T00:58:37.002Z,1017.15
2019-02-26T00:59:45.799Z,1017.15
2019-02-26T01:00:55.100Z,1017.16
2019-02-26T01:02:06.269Z,1017.09
2019-02-26T01:03:17.439Z,1017.09
2019-02-26T01:04:28.622Z,1017.11
2019-02-26T01:05:41.012Z,1017.12
2019-02-26T01:06:50.941Z,1017.08
2019-02-26T01:08:02.104Z,1017.06
2019-02-26T01:09:13.265Z,1017.06
2019-02-26T01:10:24.426Z,1017.00
2019-02-26T01:11:35.581Z,1017.01
2019-02-26T01:12:46.739Z,1017.01
2019-02-26T01:13:59.585Z,1017.00
2019-02-26T01:15:09.482Z,1017.04
2019-02-26T01:16:19.232Z,1017.04
2019-02-26T01:17:31.245Z,1017.04
2019-02-26T01:18:42.161Z,1017.02
2019-02-26T01:19:52.220Z,1017.06
2019-02-26T01:21:04.291Z,1017.00
2019-02-26T01:22:14.618Z,1017.05
2019-02-26T01:23:26.790Z,1017.00
2019-02-26T01:24:36.632Z,1016.99
2019-02-26T01:25:47.795Z,1017.01
2019-02-26T01:26:58.463Z,1016.94
2019-02-26T01:28:09.627Z,1016.95
2019-02-26T01:29:22.904Z,1016.97
2019-02-26T01:30:34.192Z,1017.01
2019-02-26T01:31:42.598Z,1017.04
2019-02-26T01:32:53.754Z,1017.05
2019-02-26T01:34:04.904Z,1017.10
2019-02-26T01:35:16.072Z,1017.12
2019-02-26T01:36:27.240Z,1017.16
2019-02-26T01:37:37.893Z,1017.19
2019-02-26T01:38:50.888Z,1017.12
2019-02-26T01:39:59.736Z,1017.11
2019-02-26T01:41:11.254Z,1017.11
2019-02-26T01:42:22.983Z,1017.06
2019-02-26T01:43:32.693Z,1017.10
2019-02-26T01:44:44.520Z,1017.08
2019-02-26T01:45:55.488Z,1017.04
2019-02-26T01:47:05.726Z,1017.02
2019-02-26T01:48:18.572Z,1017.03
2019-02-26T01:49:28.533Z,1016.96
2019-02-26T01:50:40.655Z,1016.96
2019-02-26T01:51:51.682Z,1017.01
2019-02-26T01:53:01.165Z,1017.03
2019-02-26T01:54:14.086Z,1017.00
2019-02-26T01:55:25.228Z,1017.00
2019-02-26T01:56:36.278Z,1017.04
2019-02-26T01:57:44.652Z,1016.98
2019-02-26T01:58:56.914Z,1016.95
2019-02-26T02:00:06.994Z,1016.97
2019-02-26T02:01:19.221Z,1016.96
2019-02-26T02:02:29.713Z,1016.94
2019-02-26T02:03:38.628Z,1016.96
2019-02-26T02:04:49.774Z,1016.96
2019-02-26T02:06:00.941Z,1016.98
2019-02-26T02:07:12.105Z,1016.95
2019-02-26T02:08:24.956Z,1016.99
2019-02-26T02:09:33.913Z,1016.98
2019-02-26T02:10:45.091Z,1017.00
2019-02-26T02:11:57.411Z,1016.97
2019-02-26T02:13:09.322Z,1016.93
2019-02-26T02:14:18.561Z,1016.92
2019-02-26T02:15:29.218Z,1016.90
2019-02-26T02:16:40.388Z,1016.98
2019-02-26T02:17:51.531Z,1016.95
2019-02-26T02:19:02.688Z,1016.96
2019-02-26T02:20:15.858Z,1016.96
2019-02-26T02:21:25.971Z,1016.96
2019-02-26T02:22:37.683Z,1016.86
2019-02-26T02:23:48.672Z,1016.85
2019-02-26T02:24:57.946Z,1016.81
2019-02-26T02:26:10.651Z,1016.81
2019-02-26T02:27:22.080Z,1016.77
2019-02-26T02:28:31.591Z,1016.79
2019-02-26T02:29:45.733Z,1016.77
2019-02-26T02:30:53.210Z,1016.77
2019-02-26T02:32:04.989Z,1016.72
2019-02-26T02:33:17.309Z,1016.73
2019-02-26T02:34:27.016Z,1016.73
2019-02-26T02:35:36.810Z,1016.73
2019-02-26T02:36:47.468Z,1016.71
2019-02-26T02:38:00.093Z,1016.68
2019-02-26T02:39:12.895Z,1016.66
2019-02-26T02:40:20.907Z,1016.64
2019-02-26T02:41:32.071Z,1016.58
2019-02-26T02:42:43.139Z,1016.56
2019-02-26T02:43:53.865Z,1016.55
2019-02-26T02:45:05.792Z,1016.55
2019-02-26T02:46:16.155Z,1016.56
2019-02-26T02:47:29.927Z,1016.55
2019-02-26T02:48:38.458Z,1016.55
2019-02-26T02:49:49.614Z,1016.55
2019-02-26T02:51:02.228Z,1016.55
2019-02-26T02:52:11.822Z,1016.57
2019-02-26T02:53:23.902Z,1016.54
2019-02-26T02:54:32.273Z,1016.51
2019-02-26T02:55:46.304Z,1016.47
2019-02-26T02:56:56.308Z,1016.42
2019-02-26T02:58:05.781Z,1016.38
2019-02-26T02:59:16.537Z,1016.35
2019-02-26T03:00:28.785Z,1016.29
2019-02-26T03:01:38.212Z,1016.27
2019-02-26T03:02:51.000Z,1016.25
2019-02-26T03:04:01.133Z,1016.25
2019-02-26T03:05:11.165Z,1016.20
2019-02-26T03:06:24.200Z,1016.23
2019-02-26T03:07:32.971Z,1016.22
2019-02-26T03:08:45.210Z,1016.28
2019-02-26T03:09:55.250Z,1016.30
2019-02-26T03:11:06.407Z,1016.30
2019-02-26T03:12:17.553Z,1016.30
2019-02-26T03:13:28.702Z,1016.31
2019-02-26T03:14:44.087Z,1016.32
2019-02-26T03:15:55.594Z,1016.29
2019-02-26T03:17:06.406Z,1016.29
2019-02-26T03:18:16.899Z,1016.27
2019-02-26T03:19:26.381Z,1016.24
2019-02-26T03:20:40.153Z,1016.28
2019-02-26T03:21:49.626Z,1016.31
2019-02-26T03:22:58.834Z,1016.26
2019-02-26T03:24:10.518Z,1016.31
2019-02-26T03:25:23.346Z,1016.22
2019-02-26T03:26:31.764Z,1016.22
2019-02-26T03:27:42.711Z,1016.19
2019-02-26T03:28:53.394Z,1016.19
2019-02-26T03:30:04.229Z,1016.17
2019-02-26T03:31:15.383Z,1016.15
2019-02-26T03:32:26.621Z,1016.14
2019-02-26T03:33:38.270Z,1016.13
2019-02-26T03:34:49.406Z,1016.08
2019-02-26T03:36:00.614Z,1016.07
2019-02-26T03:37:11.753Z,1016.05
2019-02-26T03:38:23.508Z,1015.99
2019-02-26T03:39:34.057Z,1016.00
2019-02-26T03:40:45.209Z,1015.93
2019-02-26T03:41:56.486Z,1015.94
2019-02-26T03:43:08.349Z,1015.91
2019-02-26T03:44:18.153Z,1015.90
2019-02-26T03:45:28.799Z,1015.92
2019-02-26T03:46:39.438Z,1015.94
2019-02-26T03:47:50.619Z,1015.92
2019-02-26T03:49:02.685Z,1015.95
2019-02-26T03:50:12.406Z,1015.91
2019-02-26T03:51:23.064Z,1015.95
2019-02-26T03:52:34.204Z,1015.96
2019-02-26T03:53:45.340Z,1015.94
2019-02-26T03:54:56.637Z,1015.94
2019-02-26T03:56:08.899Z,1016.02
2019-02-26T03:57:20.065Z,1016.08
2019-02-26T03:58:29.555Z,1016.15
2019-02-26T03:59:40.198Z,1016.17
2019-02-26T04:00:51.336Z,1016.15
2019-02-26T04:02:02.643Z,1016.11
2019-02-26T04:03:15.131Z,1016.11
2019-02-26T04:04:26.136Z,1016.03
2019-02-26T04:05:35.573Z,1016.01
2019-02-26T04:06:47.098Z,1016.07
2019-02-26T04:07:59.518Z,1016.08
2019-02-26T04:09:10.938Z,1016.12
2019-02-26T04:10:19.782Z,1016.13
2019-02-26T04:11:30.917Z,1016.17
2019-02-26T04:12:44.631Z,1016.15
2019-02-26T04:13:56.125Z,1016.12
2019-02-26T04:15:04.346Z,1016.15
2019-02-26T04:16:15.481Z,1016.18
2019-02-26T04:17:28.639Z,1016.18
2019-02-26T04:18:37.804Z,1016.12
2019-02-26T04:19:48.452Z,1016.11
2019-02-26T04:21:03.215Z,1016.10
2019-02-26T04:22:12.617Z,1016.06
2019-02-26T04:23:22.035Z,1016.04
2019-02-26T04:24:35.430Z,1016.04
2019-02-26T04:25:43.659Z,1016.04
2019-02-26T04:26:54.310Z,1016.05
2019-02-26T04:28:05.364Z,1016.12
2019-02-26T04:29:16.105Z,1016.08
2019-02-26T04:30:27.238Z,1016.07
2019-02-26T04:31:38.380Z,1016.07
2019-02-26T04:32:49.105Z,1016.01
2019-02-26T04:34:04.394Z,1016.05
2019-02-26T04:35:10.810Z,1016.08
2019-02-26T04:36:22.393Z,1016.04
2019-02-26T04:37:35.090Z,1016.13
2019-02-26T04:38:45.643Z,1016.15
2019-02-26T04:39:54.877Z,1016.17
2019-02-26T04:41:06.869Z,1016.20
2019-02-26T04:42:20.289Z,1016.19
2019-02-26T04:43:28.667Z,1016.17
2019-02-26T04:44:38.930Z,1016.15
2019-02-26T04:45:50.071Z,1016.16
2019-02-26T04:47:03.557Z,1016.12
2019-02-26T04:48:14.698Z,1016.05
2019-02-26T04:49:27.126Z,1016.08
2019-02-26T04:50:35.753Z,1016.08
2019-02-26T04:51:47.790Z,1016.05
2019-02-26T04:52:59.752Z,1016.11
2019-02-26T04:54:08.619Z,1016.09
2019-02-26T04:55:19.267Z,1016.14
2019-02-26T04:56:33.484Z,1016.13
2019-02-26T04:57:43.281Z,1016.17
2019-02-26T04:58:52.615Z,1016.17
2019-02-26T05:00:05.211Z,1016.21
2019-02-26T05:01:16.381Z,1016.20
2019-02-26T05:02:26.031Z,1016.14
2019-02-26T05:03:36.675Z,1016.14
2019-02-26T05:04:47.320Z,1016.16
2019-02-26T05:06:00.158Z,1016.13
2019-02-26T05:07:12.838Z,1016.13
2019-02-26T05:08:20.254Z,1016.13
2019-02-26T05:09:33.300Z,1016.16
2019-02-26T05:10:42.050Z,1016.11
2019-02-26T05:11:53.179Z,1016.09
2019-02-26T05:13:07.378Z,1016.05
2019-02-26T05:14:20.760Z,1016.06
2019-02-26T05:15:26.526Z,1016.05
2019-02-26T05:16:37.863Z,1016.05
2019-02-26T05:17:47.946Z,1016.07
2019-02-26T05:18:59.086Z,1016.03
2019-02-26T05:20:12.991Z,1016.03
2019-02-26T05:21:21.355Z,1016.07
2019-02-26T05:22:33.394Z,1016.02
2019-02-26T05:23:43.744Z,1016.04
2019-02-26T05:24:54.375Z,1016.03
2019-02-26T05:26:08.105Z,1016.00
2019-02-26T05:27:19.789Z,1016.01
2019-02-26T05:28:29.920Z,1016.03
2019-02-26T05:29:40.988Z,1016.03
2019-02-26T05:30:51.428Z,1016.04
2019-02-26T05:32:04.083Z,1016.09
2019-02-26T05:33:13.332Z,1016.11
2019-02-26T05:34:25.914Z,1016.12
2019-02-26T05:35:37.814Z,1016.15
2019-02-26T05:36:46.892Z,1016.14
2019-02-26T05:38:00.591Z,1016.19
2019-02-26T05:39:09.167Z,1016.18
2019-02-26T05:40:22.239Z,1016.15
2019-02-26T05:41:31.450Z,1016.14
2019-02-26T05:42:42.626Z,1016.10
2019-02-26T05:43:57.875Z,1016.07
2019-02-26T05:45:08.460Z,1016.07
2019-02-26T05:46:18.895Z,1016.06
2019-02-26T05:47:27.173Z,1016.05
2019-02-26T05:48:39.968Z,1016.04
2019-02-26T05:49:49.440Z,1016.09
2019-02-26T05:51:02.992Z,1016.11
2019-02-26T05:52:11.746Z,1016.19
2019-02-26T05:53:22.882Z,1016.23
2019-02-26T05:54:34.023Z,1016.25
2019-02-26T05:55:48.551Z,1016.23
2019-02-26T05:56:57.327Z,1016.29
2019-02-26T05:58:10.074Z,1016.29
2019-02-26T05:59:21.712Z,1016.27
2019-02-26T06:00:33.251Z,1016.23
2019-02-26T06:01:43.808Z,1016.20
2019-02-26T06:02:53.938Z,1016.21
2019-02-26T06:04:06.982Z,1016.21
2019-02-26T06:05:20.273Z,1016.17
2019-02-26T06:06:28.347Z,1016.18
2019-02-26T06:07:39.485Z,1016.17
2019-02-26T06:08:50.625Z,1016.20
2019-02-26T06:10:01.751Z,1016.22
2019-02-26T06:11:12.880Z,1016.22
2019-02-26T06:12:24.009Z,1016.20
2019-02-26T06:13:37.633Z,1016.18
2019-02-26T06:14:45.773Z,1016.22
2019-02-26T06:15:58.548Z,1016.25
2019-02-26T06:17:10.668Z,1016.26
2019-02-26T06:18:20.922Z,1016.23
2019-02-26T06:19:32.633Z,1016.26
2019-02-26T06:20:41.451Z,1016.23
2019-02-26T06:21:54.808Z,1016.24
2019-02-26T06:23:03.758Z,1016.24
2019-02-26T06:24:14.892Z,1016.21
2019-02-26T06:25:26.046Z,1016.25
2019-02-26T06:26:38.120Z,1016.25
2019-02-26T06:27:48.297Z,1016.18
2019-02-26T06:28:59.431Z,1016.20
2019-02-26T06:30:12.276Z,1016.21
2019-02-26T06:31:22.639Z,1016.17
2019-02-26T06:32:35.213Z,1016.21
2019-02-26T06:33:47.178Z,1016.16
2019-02-26T06:34:55.692Z,1016.22
2019-02-26T06:36:06.825Z,1016.25
2019-02-26T06:37:18.632Z,1016.25
2019-02-26T06:38:32.194Z,1016.24
2019-02-26T06:39:40.892Z,1016.22
2019-02-26T06:40:52.022Z,1016.22
2019-02-26T06:42:05.127Z,1016.20
2019-02-26T06:43:14.295Z,1016.14
2019-02-26T06:44:25.443Z,1016.05
2019-02-26T06:45:37.963Z,1016.07
2019-02-26T06:46:47.761Z,1016.10
2019-02-26T06:47:58.901Z,1016.12
2019-02-26T06:49:10.036Z,1016.10
2019-02-26T06:50:21.167Z,1016.07
2019-02-26T06:51:32.305Z,1016.12
2019-02-26T06:52:45.375Z,1016.10
2019-02-26T06:53:56.528Z,1016.13
2019-02-26T06:55:07.746Z,1016.09
2019-02-26T06:56:17.984Z,1016.07
2019-02-26T06:57:27.582Z,1016.08
2019-02-26T06:58:40.574Z,1016.07
2019-02-26T06:59:51.008Z,1016.12
2019-02-26T07:01:01.012Z,1016.12
2019-02-26T07:02:12.154Z,1016.11
2019-02-26T07:03:24.939Z,1016.10
2019-02-26T07:04:35.427Z,1016.09
2019-02-26T07:05:46.653Z,1016.07
2019-02-26T07:06:59.432Z,1016.09
2019-02-26T07:08:08.910Z,1016.06
2019-02-26T07:09:20.504Z,1016.08
2019-02-26T07:10:31.364Z,1016.08
2019-02-26T07:11:41.826Z,1016.07
2019-02-26T07:12:52.978Z,1016.08
2019-02-26T07:14:05.569Z,1016.01
2019-02-26T07:15:15.266Z,1016.03
2019-02-26T07:16:26.413Z,1016.05
2019-02-26T07:17:38.526Z,1016.05
2019-02-26T07:18:48.685Z,1016.08
2019-02-26T07:20:00.290Z,1016.05
2019-02-26T07:21:10.958Z,1016.03
2019-02-26T07:22:22.102Z,1016.03
2019-02-26T07:23:35.096Z,1016.04
2019-02-26T07:24:46.315Z,1016.04
2019-02-26T07:25:55.030Z,1016.05
2019-02-26T07:27:06.668Z,1016.05
2019-02-26T07:28:17.565Z,1016.04
2019-02-26T07:29:30.787Z,1016.01
2019-02-26T07:30:39.886Z,1016.03
2019-02-26T07:31:51.805Z,1016.08
2019-02-26T07:33:03.107Z,1016.04
2019-02-26T07:34:12.615Z,1016.04
2019-02-26T07:35:23.760Z,1016.06
2019-02-26T07:36:34.907Z,1016.09
2019-02-26T07:37:46.048Z,1016.14
2019-02-26T07:38:56.696Z,1016.13
2019-02-26T07:40:08.747Z,1016.16
2019-02-26T07:41:20.780Z,1016.12
2019-02-26T07:42:32.701Z,1016.17
2019-02-26T07:43:41.778Z,1016.17
2019-02-26T07:44:51.926Z,1016.24
2019-02-26T07:46:02.566Z,1016.27
2019-02-26T07:47:13.711Z,1016.29
2019-02-26T07:48:27.157Z,1016.29
2019-02-26T07:49:36.012Z,1016.29
2019-02-26T07:50:49.033Z,1016.29
2019-02-26T07:52:00.328Z,1016.30
2019-02-26T07:53:12.228Z,1016.30
2019-02-26T07:54:21.768Z,1016.31
2019-02-26T07:55:35.277Z,1016.35
2019-02-26T07:56:43.572Z,1016.32
2019-02-26T07:57:54.225Z,1016.35
2019-02-26T07:59:09.422Z,1016.35
2019-02-26T08:00:16.639Z,1016.38
2019-02-26T08:01:27.791Z,1016.37
2019-02-26T08:02:38.946Z,1016.34
2019-02-26T08:03:51.516Z,1016.30
2019-02-26T08:05:00.730Z,1016.32
2019-02-26T08:06:13.890Z,1016.27
2019-02-26T08:07:24.387Z,1016.28
2019-02-26T08:08:34.167Z,1016.23
2019-02-26T08:09:45.326Z,1016.25
2019-02-26T08:10:56.627Z,1016.24
2019-02-26T08:12:10.790Z,1016.14
2019-02-26T08:13:18.918Z,1016.11
2019-02-26T08:14:30.060Z,1016.07
2019-02-26T08:15:41.218Z,1016.10
2019-02-26T08:16:55.673Z,1016.07
2019-02-26T08:18:05.258Z,1016.05
2019-02-26T08:19:14.678Z,1016.05
2019-02-26T08:20:27.898Z,1016.05
2019-02-26T08:21:36.983Z,1016.09
2019-02-26T08:22:49.550Z,1016.04
2019-02-26T08:23:59.280Z,1016.11
2019-02-26T08:25:10.435Z,1016.11
2019-02-26T08:26:22.113Z,1016.14
2019-02-26T08:27:33.856Z,1016.19
2019-02-26T08:28:44.085Z,1016.15
2019-02-26T08:29:55.990Z,1016.11
2019-02-26T08:31:05.447Z,1016.04
2019-02-26T08:32:18.854Z,1016.03
2019-02-26T08:33:27.529Z,1016.03
2019-02-26T08:34:39.790Z,1016.02
2019-02-26T08:35:49.373Z,1016.01
2019-02-26T08:37:00.621Z,1016.01
2019-02-26T08:38:11.780Z,1016.05
2019-02-26T08:39:22.437Z,1016.06
2019-02-26T08:40:33.601Z,1016.09
2019-02-26T08:41:44.763Z,1016.09
2019-02-26T08:42:55.920Z,1016.13
2019-02-26T08:44:07.066Z,1016.14
2019-02-26T08:45:20.303Z,1016.13
2019-02-26T08:46:28.878Z,1016.16
2019-02-26T08:47:40.040Z,1016.16
2019-02-26T08:48:51.208Z,1016.17
2019-02-26T08:50:06.476Z,1016.18
2019-02-26T08:51:16.198Z,1016.15
2019-02-26T08:52:25.032Z,1016.13
2019-02-26T08:53:34.862Z,1016.12
2019-02-26T08:54:46.039Z,1016.15
2019-02-26T08:55:58.848Z,1016.16
2019-02-26T08:57:07.856Z,1016.13
2019-02-26T08:58:18.527Z,1016.10
2019-02-26T08:59:29.200Z,1016.11
2019-02-26T09:00:39.881Z,1016.10
2019-02-26T09:01:51.054Z,1016.09
2019-02-26T09:03:01.719Z,1016.03
2019-02-26T09:04:14.520Z,1016.08
2019-02-26T09:05:26.333Z,1016.04
2019-02-26T09:06:35.229Z,1016.07
2019-02-26T09:07:47.619Z,1016.03
2019-02-26T09:08:57.935Z,1016.02
2019-02-26T09:10:10.682Z,1015.99
2019-02-26T09:11:19.423Z,1016.01
2019-02-26T09:12:30.625Z,1015.99
2019-02-26T09:13:43.781Z,1016.03
2019-02-26T09:14:52.954Z,1015.97
2019-02-26T09:16:05.524Z,1015.96
2019-02-26T09:17:18.666Z,1015.92
2019-02-26T09:18:28.081Z,1015.86
2019-02-26T09:19:38.051Z,1015.85
2019-02-26T09:20:47.853Z,1015.89
2019-02-26T09:21:59.027Z,1015.82
2019-02-26T09:23:10.197Z,1015.83
2019-02-26T09:24:21.378Z,1015.83
2019-02-26T09:25:33.952Z,1015.87
2019-02-26T09:26:43.799Z,1015.90
2019-02-26T09:27:54.980Z,1015.93
2019-02-26T09:29:06.154Z,1015.94
2019-02-26T09:30:17.347Z,1015.93
2019-02-26T09:31:28.622Z,1015.98
2019-02-26T09:32:42.057Z,1015.97
2019-02-26T09:33:50.986Z,1016.02
2019-02-26T09:35:04.715Z,1016.02
2019-02-26T09:36:15.735Z,1016.04
2019-02-26T09:37:24.629Z,1016.08
2019-02-26T09:38:35.811Z,1016.12
2019-02-26T09:39:46.994Z,1016.16
2019-02-26T09:40:58.194Z,1016.15
2019-02-26T09:42:09.395Z,1016.18
2019-02-26T09:43:22.648Z,1016.19
2019-02-26T09:44:33.973Z,1016.16
2019-02-26T09:45:43.612Z,1016.16
2019-02-26T09:46:55.354Z,1016.15
2019-02-26T09:48:04.862Z,1016.12
2019-02-26T09:49:16.047Z,1016.11
2019-02-26T09:50:27.235Z,1016.13
2019-02-26T09:51:39.949Z,1016.10
2019-02-26T09:52:50.810Z,1016.07
2019-02-26T09:54:00.802Z,1016.09
2019-02-26T09:55:12.000Z,1016.07
2019-02-26T09:56:23.186Z,1016.04
2019-02-26T09:57:34.395Z,1016.05
2019-02-26T09:58:47.874Z,1016.04
2019-02-26T09:59:58.112Z,1016.02
2019-02-26T10:01:09.108Z,1015.97
2019-02-26T10:02:20.126Z,1015.96
2019-02-26T10:03:34.470Z,1015.92
2019-02-26T10:04:42.505Z,1015.90
2019-02-26T10:05:55.145Z,1015.88
2019-02-26T10:07:04.768Z,1015.90
2019-02-26T10:08:16.729Z,1015.82
2019-02-26T10:09:26.360Z,1015.79
2019-02-26T10:10:39.607Z,1015.78
2019-02-26T10:11:49.238Z,1015.77
2019-02-26T10:13:02.135Z,1015.75
2019-02-26T10:14:12.611Z,1015.74
2019-02-26T10:15:21.855Z,1015.75
2019-02-26T10:16:33.108Z,1015.68
2019-02-26T10:17:45.173Z,1015.66
2019-02-26T10:18:56.790Z,1015.66
2019-02-26T10:20:09.159Z,1015.64
2019-02-26T10:21:20.381Z,1015.64
2019-02-26T10:22:33.148Z,1015.60
2019-02-26T10:23:40.323Z,1015.58
2019-02-26T10:24:51.546Z,1015.56
2019-02-26T10:26:03.537Z,1015.61
2019-02-26T10:27:16.043Z,1015.55
2019-02-26T10:28:25.180Z,1015.54
2019-02-26T10:29:37.350Z,1015.50
2019-02-26T10:30:47.620Z,1015.52
2019-02-26T10:31:58.831Z,1015.52
2019-02-26T10:33:11.062Z,1015.49
2019-02-26T10:34:25.622Z,1015.48
2019-02-26T10:35:36.063Z,1015.43
2019-02-26T10:36:48.657Z,1015.42
2019-02-26T10:37:57.060Z,1015.33
2019-02-26T10:39:08.285Z,1015.28
2019-02-26T10:40:19.516Z,1015.24
2019-02-26T10:41:29.593Z,1015.21
2019-02-26T10:42:40.805Z,1015.14
2019-02-26T10:43:52.030Z,1015.08
2019-02-26T10:45:03.258Z,1015.05
2019-02-26T10:46:14.631Z,1014.98
2019-02-26T10:47:27.318Z,1014.99
2019-02-26T10:48:36.639Z,1014.93
2019-02-26T10:49:49.078Z,1014.93
2019-02-26T10:50:59.081Z,1014.86
2019-02-26T10:52:10.881Z,1014.87
2019-02-26T10:53:22.658Z,1014.84
2019-02-26T10:54:37.473Z,1014.80
2019-02-26T10:55:43.013Z,1014.77
2019-02-26T10:56:54.250Z,1014.78
2019-02-26T10:58:09.991Z,1014.80
2019-02-26T10:59:19.606Z,1014.78
2019-02-26T11:00:30.830Z,1014.79
2019-02-26T11:01:38.708Z,1014.79
2019-02-26T11:02:51.072Z,1014.78
2019-02-26T11:04:01.176Z,1014.77
2019-02-26T11:05:14.270Z,1014.82
2019-02-26T11:06:23.673Z,1014.77
2019-02-26T11:07:37.529Z,1014.74
2019-02-26T11:08:47.547Z,1014.75
2019-02-26T11:09:58.899Z,1014.77
2019-02-26T11:11:10.034Z,1014.76
2019-02-26T11:12:22.168Z,1014.76
2019-02-26T11:13:31.140Z,1014.75
2019-02-26T11:14:43.877Z,1014.74
2019-02-26T11:15:53.872Z,1014.71
2019-02-26T11:17:04.386Z,1014.69
2019-02-26T11:18:18.050Z,1014.64
2019-02-26T11:19:27.344Z,1014.63
2019-02-26T11:20:38.167Z,1014.57
2019-02-26T11:21:50.680Z,1014.54
2019-02-26T11:23:00.164Z,1014.47
2019-02-26T11:24:11.433Z,1014.45
2019-02-26T11:25:24.830Z,1014.37
2019-02-26T11:26:35.971Z,1014.33
2019-02-26T11:27:45.879Z,1014.25
2019-02-26T11:28:56.447Z,1014.17
2019-02-26T11:30:07.698Z,1014.09
2019-02-26T11:31:24.377Z,1014.14
2019-02-26T11:32:32.621Z,1014.15
2019-02-26T11:33:42.002Z,1014.16
2019-02-26T11:34:55.195Z,1013.84
2019-02-26T11:36:05.514Z,1013.35
2019-02-26T11:37:15.895Z,1012.71
2019-02-26T11:38:27.177Z,1012.19
2019-02-26T11:39:38.423Z,1011.95
2019-02-26T11:40:49.689Z,1011.48
2019-02-26T11:42:01.255Z,1011.31
2019-02-26T11:43:14.515Z,1011.02
2019-02-26T11:44:25.418Z,1010.65
2019-02-26T11:45:37.083Z,1010.34
2019-02-26T11:46:49.475Z,1010.10
2019-02-26T11:48:00.999Z,1009.93
2019-02-26T11:49:11.990Z,1010.12
2019-02-26T11:50:21.636Z,1009.94
2019-02-26T11:51:37.123Z,1009.80
2019-02-26T11:52:44.641Z,1009.74
2019-02-26T11:53:56.189Z,1009.53
2019-02-26T11:55:09.435Z,1009.43
2019-02-26T11:56:21.294Z,1009.32
2019-02-26T11:57:34.927Z,1009.45
2019-02-26T11:58:43.590Z,1009.31
2019-02-26T11:59:57.056Z,1009.29
2019-02-26T12:01:06.922Z,1009.18
2019-02-26T12:02:25.143Z,1009.12
2019-02-26T12:03:34.146Z,1009.23
2019-02-26T12:04:43.104Z,1009.14
2019-02-26T12:05:56.648Z,1009.02
2019-02-26T12:07:09.336Z,1008.98
2019-02-26T12:08:21.866Z,1009.00
2019-02-26T12:09:32.964Z,1009.05
2019-02-26T12:10:43.062Z,1009.03
2019-02-26T12:11:56.031Z,1009.03
2019-02-26T12:13:06.755Z,1008.91
2019-02-26T12:14:19.454Z,1008.80
2019-02-26T12:15:32.795Z,1008.68
2019-02-26T12:16:42.617Z,1008.57
2019-02-26T12:17:56.492Z,1008.66
2019-02-26T12:19:08.736Z,1008.64
2019-02-26T12:20:19.640Z,1008.55
2019-02-26T12:21:32.209Z,1008.48
2019-02-26T12:22:44.526Z,1008.36
2019-02-26T12:23:53.962Z,1008.34
2019-02-26T12:25:08.951Z,1008.28
2019-02-26T12:26:19.182Z,1008.16
2019-02-26T12:27:29.934Z,1008.13
2019-02-26T12:28:41.944Z,1008.11
2019-02-26T12:29:54.501Z,1008.13
2019-02-26T12:31:08.120Z,1008.08
2019-02-26T12:32:19.986Z,1008.06
2019-02-26T12:33:32.441Z,1008.02
2019-02-26T12:34:44.616Z,1008.06
2019-02-26T12:35:56.308Z,1008.01
2019-02-26T12:37:09.836Z,1008.04
2019-02-26T12:38:21.314Z,1008.06
2019-02-26T12:39:31.364Z,1008.10
2019-02-26T12:40:44.731Z,1008.03
2019-02-26T12:41:54.631Z,1008.13
2019-02-26T12:43:09.123Z,1008.06
2019-02-26T12:44:18.799Z,1008.02
2019-02-26T12:45:31.812Z,1008.02
2019-02-26T12:46:44.841Z,1008.07
2019-02-26T12:47:55.390Z,1008.06
2019-02-26T12:49:09.408Z,1008.01
2019-02-26T12:50:19.361Z,1007.93
2019-02-26T12:51:32.577Z,1007.99
2019-02-26T12:52:44.810Z,1007.99
2019-02-26T12:53:55.742Z,1007.98
2019-02-26T12:55:10.284Z,1007.97
2019-02-26T12:56:20.794Z,1007.96
2019-02-26T12:57:32.151Z,1007.96
2019-02-26T12:58:45.230Z,1008.02
2019-02-26T12:59:56.447Z,1008.01
2019-02-26T13:01:08.594Z,1007.99
2019-02-26T13:02:24.612Z,1008.03
2019-02-26T13:03:38.063Z,1008.11
2019-02-26T13:04:47.235Z,1008.06
2019-02-26T13:05:57.163Z,1008.00
2019-02-26T13:07:09.509Z,1007.90
2019-02-26T13:08:24.150Z,1007.90
2019-02-26T13:09:33.594Z,1007.82
2019-02-26T13:10:49.550Z,1007.76
2019-02-26T13:12:02.529Z,1007.79
2019-02-26T13:13:10.068Z,1007.65
2019-02-26T13:14:22.219Z,1007.51
2019-02-26T13:15:34.377Z,1007.57
2019-02-26T13:16:48.612Z,1007.62
2019-02-26T13:17:58.228Z,1007.80
2019-02-26T13:19:10.391Z,1008.14
2019-02-26T13:20:22.552Z,1008.50
2019-02-26T13:21:34.727Z,1008.78
2019-02-26T13:22:47.206Z,1009.22
2019-02-26T13:24:11.498Z,1009.53
2019-02-26T13:25:15.564Z,1009.85
2019-02-26T13:26:23.640Z,1010.13
2019-02-26T13:27:38.510Z,1010.37
2019-02-26T13:28:52.930Z,1010.56
2019-02-26T13:29:59.858Z,1010.73
2019-02-26T13:31:13.738Z,1010.89
2019-02-26T13:32:26.253Z,1011.05
2019-02-26T13:33:38.513Z,1011.24
2019-02-26T13:34:47.261Z,1011.38
2019-02-26T13:36:01.867Z,1011.51
2019-02-26T13:37:11.079Z,1011.62
2019-02-26T13:38:24.806Z,1011.75
2019-02-26T13:39:38.562Z,1011.71
2019-02-26T13:40:46.637Z,1011.46
2019-02-26T13:42:03.470Z,1011.21
2019-02-26T13:43:10.261Z,1010.86
2019-02-26T13:44:22.048Z,1010.60
2019-02-26T13:45:33.827Z,1010.37
2019-02-26T13:46:45.590Z,1010.13
2019-02-26T13:48:01.118Z,1009.91
2019-02-26T13:49:08.616Z,1009.64
2019-02-26T13:50:20.366Z,1009.46
2019-02-26T13:51:32.133Z,1009.35
2019-02-26T13:52:43.881Z,1009.30
2019-02-26T13:53:55.637Z,1009.19
2019-02-26T13:55:07.420Z,1008.98
2019-02-26T13:56:19.201Z,1008.96
2019-02-26T13:57:30.991Z,1008.92
2019-02-26T13:58:42.838Z,1008.94
2019-02-26T13:59:54.700Z,1008.81
2019-02-26T14:01:06.631Z,1008.75
2019-02-26T14:02:18.636Z,1008.58
2019-02-26T14:03:30.623Z,1008.49
2019-02-26T14:04:42.626Z,1008.55
2019-02-26T14:05:54.620Z,1008.51
2019-02-26T14:07:06.628Z,1008.52
2019-02-26T14:08:18.620Z,1008.45
2019-02-26T14:09:30.615Z,1008.38
2019-02-26T14:10:42.619Z,1008.45
2019-02-26T14:11:54.620Z,1008.34
2019-02-26T14:13:06.735Z,1008.27
2019-02-26T14:14:18.708Z,1008.26
2019-02-26T14:15:30.686Z,1008.17
2019-02-26T14:16:42.681Z,1008.16
2019-02-26T14:17:54.655Z,1008.09
2019-02-26T14:19:07.694Z,1007.94
2019-02-26T14:20:19.679Z,1007.83
2019-02-26T14:21:31.669Z,1007.80